createdAt,value
2023-03-12T00:02:14.823Z,3.90
2023-03-12T00:04:41.268Z,3.67
2023-03-12T00:07:08.843Z,3.95
2023-03-12T00:09:36.591Z,3.67
2023-03-12T00:12:03.135Z,3.75
2023-03-12T00:14:29.635Z,3.58
2023-03-12T00:16:56.238Z,3.83
2023-03-12T00:19:22.789Z,3.50
2023-03-12T00:21:49.190Z,3.15
2023-03-12T00:24:16.630Z,3.55
2023-03-12T00:26:43.495Z,3.40
2023-03-12T00:29:09.873Z,3.33
2023-03-12T00:31:36.387Z,3.40
2023-03-12T00:34:03.077Z,3.70
2023-03-12T00:36:30.673Z,3.30
2023-03-12T00:41:24.149Z,3.53
2023-03-12T00:43:51.400Z,3.70
2023-03-12T00:46:18.734Z,3.38
2023-03-12T00:48:45.219Z,3.70
2023-03-12T00:51:12.229Z,3.05
2023-03-12T00:53:39.134Z,3.25
2023-03-12T00:56:06.117Z,3.15
2023-03-12T00:58:32.801Z,3.15
2023-03-12T01:00:59.477Z,3.25
2023-03-12T01:03:26.280Z,3.40
2023-03-12T01:05:54.641Z,3.10
2023-03-12T01:08:21.902Z,3.10
2023-03-12T01:10:48.520Z,3.25
2023-03-12T01:13:15.039Z,3.17
2023-03-12T01:15:41.483Z,3.15
2023-03-12T01:18:07.951Z,2.58
2023-03-12T01:20:34.416Z,2.83
2023-03-12T01:23:00.944Z,2.70
2023-03-12T01:25:27.420Z,2.70
2023-03-12T01:27:53.922Z,3.05
2023-03-12T01:30:20.312Z,2.67
2023-03-12T01:32:46.924Z,2.90
2023-03-12T01:35:13.486Z,2.60
2023-03-12T01:37:40.140Z,2.70
2023-03-12T01:40:06.722Z,2.63
2023-03-12T01:42:33.155Z,2.85
2023-03-12T01:45:00.659Z,2.70
2023-03-12T01:47:31.967Z,3.10
2023-03-12T01:50:00.554Z,3.15
2023-03-12T01:52:29.162Z,2.95
2023-03-12T01:55:04.633Z,2.97
2023-03-12T01:57:46.220Z,3.35
2023-03-12T02:00:19.224Z,3.10
2023-03-12T02:02:46.797Z,2.67
2023-03-12T02:05:17.597Z,3.28
2023-03-12T02:07:43.983Z,2.97
2023-03-12T02:10:10.716Z,2.83
2023-03-12T02:12:37.270Z,2.72
2023-03-12T02:15:04.029Z,3.00
2023-03-12T02:17:31.353Z,2.92
2023-03-12T02:20:02.003Z,2.67
2023-03-12T02:22:29.309Z,3.20
2023-03-12T02:25:04.396Z,2.80
2023-03-12T02:27:36.145Z,2.75
2023-03-12T02:30:03.560Z,2.78
2023-03-12T02:32:34.155Z,3.13
2023-03-12T02:35:01.449Z,3.15
2023-03-12T02:37:27.977Z,2.45
2023-03-12T02:40:15.471Z,2.80
2023-03-12T02:42:41.902Z,2.67
2023-03-12T02:45:08.483Z,2.70
2023-03-12T02:47:34.897Z,2.60
2023-03-12T02:50:01.267Z,2.40
2023-03-12T02:52:27.780Z,2.85
2023-03-12T02:54:54.294Z,3.20
2023-03-12T02:57:20.784Z,2.60
2023-03-12T02:59:47.175Z,2.60
2023-03-12T03:02:13.926Z,2.60
2023-03-12T03:04:40.604Z,2.80
2023-03-12T03:07:07.202Z,2.42
2023-03-12T03:09:33.802Z,2.40
2023-03-12T03:12:00.529Z,2.47
2023-03-12T03:14:29.022Z,2.55
2023-03-12T03:16:55.588Z,2.50
2023-03-12T03:19:22.704Z,2.75
2023-03-12T03:21:49.236Z,2.33
2023-03-12T03:24:16.824Z,2.30
2023-03-12T03:26:44.146Z,2.60
2023-03-12T03:29:10.584Z,2.50
2023-03-12T03:31:37.209Z,2.17
2023-03-12T03:34:03.693Z,2.60
2023-03-12T03:36:30.173Z,2.30
2023-03-12T03:39:05.130Z,2.50
2023-03-12T03:41:33.054Z,1.98
2023-03-12T03:43:59.646Z,2.35
2023-03-12T03:46:27.710Z,2.30
2023-03-12T03:48:59.896Z,2.15
2023-03-12T03:51:27.368Z,2.22
2023-03-12T03:54:00.272Z,2.13
2023-03-12T03:56:27.010Z,2.17
2023-03-12T03:58:53.396Z,2.20
2023-03-12T04:01:21.291Z,2.13
2023-03-12T04:03:49.034Z,2.25
2023-03-12T04:06:15.673Z,2.03
2023-03-12T04:08:42.484Z,2.10
2023-03-12T04:11:14.918Z,1.83
2023-03-12T04:13:41.802Z,2.08
2023-03-12T04:16:09.429Z,2.20
2023-03-12T04:18:36.273Z,1.90
2023-03-12T04:21:04.340Z,2.10
2023-03-12T04:23:30.961Z,2.03
2023-03-12T04:25:57.663Z,1.98
2023-03-12T04:28:24.054Z,2.00
2023-03-12T04:30:56.958Z,1.80
2023-03-12T04:33:23.459Z,2.20
2023-03-12T04:35:51.697Z,2.20
2023-03-12T04:38:19.744Z,2.50
2023-03-12T04:40:46.330Z,2.05
2023-03-12T04:43:13.170Z,2.20
2023-03-12T04:45:39.664Z,2.00
2023-03-12T04:48:06.225Z,2.10
2023-03-12T04:50:32.721Z,1.90
2023-03-12T04:52:59.161Z,2.10
2023-03-12T04:55:25.658Z,1.60
2023-03-12T04:57:52.190Z,2.13
2023-03-12T05:00:18.953Z,1.83
2023-03-12T05:02:46.290Z,1.90
2023-03-12T05:05:12.793Z,1.95
2023-03-12T05:07:40.037Z,2.00
2023-03-12T05:10:07.371Z,1.95
2023-03-12T05:12:33.868Z,1.85
2023-03-12T05:15:00.393Z,1.83
2023-03-12T05:17:27.164Z,2.10
2023-03-12T05:19:53.577Z,1.77
2023-03-12T05:22:20.232Z,1.80
2023-03-12T05:24:46.718Z,1.90
2023-03-12T05:27:13.162Z,2.08
2023-03-12T05:29:39.755Z,1.73
2023-03-12T05:32:07.573Z,2.05
2023-03-12T05:34:34.782Z,1.65
2023-03-12T05:37:01.845Z,2.28
2023-03-12T05:41:59.636Z,1.90
2023-03-12T05:44:26.264Z,2.30
2023-03-12T05:46:56.155Z,2.00
2023-03-12T05:49:25.862Z,1.95
2023-03-12T05:51:53.851Z,1.98
2023-03-12T05:54:21.753Z,1.90
2023-03-12T05:56:50.490Z,2.03
2023-03-12T05:59:17.538Z,1.90
2023-03-12T06:01:44.001Z,1.98
2023-03-12T06:04:11.446Z,2.00
2023-03-12T06:06:38.168Z,1.92
2023-03-12T06:09:05.131Z,1.80
2023-03-12T06:11:33.204Z,1.80
2023-03-12T06:13:59.663Z,1.90
2023-03-12T06:16:27.018Z,2.10
2023-03-12T06:21:22.928Z,1.80
2023-03-12T06:23:49.734Z,1.90
2023-03-12T06:26:21.836Z,2.00
2023-03-12T06:28:48.908Z,1.85
2023-03-12T06:31:15.751Z,1.90
2023-03-12T06:33:42.763Z,2.35
2023-03-12T06:36:09.910Z,2.13
2023-03-12T06:38:36.982Z,2.13
2023-03-12T06:41:03.553Z,1.90
2023-03-12T06:43:31.304Z,1.85
2023-03-12T06:45:59.033Z,2.30
2023-03-12T06:50:51.758Z,1.70
2023-03-12T06:53:18.608Z,2.10
2023-03-12T06:55:45.596Z,2.10
2023-03-12T06:58:12.504Z,1.85
2023-03-12T07:00:39.193Z,2.05
2023-03-12T07:03:05.675Z,1.95
2023-03-12T07:05:32.455Z,1.63
2023-03-12T07:07:58.862Z,2.20
2023-03-12T07:10:28.056Z,1.90
2023-03-12T07:12:55.057Z,1.92
2023-03-12T07:15:22.061Z,1.85
2023-03-12T07:17:48.520Z,2.05
2023-03-12T07:20:14.961Z,2.10
2023-03-12T07:22:41.590Z,1.95
2023-03-12T07:25:08.553Z,2.10
2023-03-12T07:27:35.030Z,1.98
2023-03-12T07:30:01.460Z,1.98
2023-03-12T07:32:28.084Z,2.00
2023-03-12T07:34:54.545Z,2.00
2023-03-12T07:37:21.046Z,2.00
2023-03-12T07:39:51.230Z,2.00
2023-03-12T07:42:17.881Z,2.00
2023-03-12T07:44:45.949Z,1.88
2023-03-12T07:47:23.259Z,2.10
2023-03-12T07:49:50.741Z,2.00
2023-03-12T07:52:18.292Z,2.13
2023-03-12T07:54:45.398Z,1.70
2023-03-12T07:57:12.091Z,2.08
2023-03-12T07:59:38.700Z,1.90
2023-03-12T08:02:05.129Z,2.00
2023-03-12T08:04:31.747Z,2.08
2023-03-12T08:06:58.398Z,2.28
2023-03-12T08:09:25.356Z,2.00
2023-03-12T08:11:52.012Z,2.35
2023-03-12T08:14:18.680Z,1.95
2023-03-12T08:16:45.425Z,1.92
2023-03-12T08:19:11.886Z,2.10
2023-03-12T08:21:38.249Z,2.03
2023-03-12T08:24:04.753Z,2.30
2023-03-12T08:26:31.173Z,2.40
2023-03-12T08:28:57.735Z,2.25
2023-03-12T08:31:24.212Z,2.03
2023-03-12T08:33:50.691Z,2.08
2023-03-12T08:36:17.182Z,2.35
2023-03-12T08:38:43.633Z,2.10
2023-03-12T08:41:10.863Z,2.20
2023-03-12T08:43:37.320Z,1.95
2023-03-12T08:46:04.470Z,2.33
2023-03-12T08:48:31.900Z,2.15
2023-03-12T08:50:59.185Z,2.10
2023-03-12T08:53:26.342Z,2.20
2023-03-12T08:55:56.281Z,2.05
2023-03-12T08:58:25.220Z,2.17
2023-03-12T09:00:51.813Z,2.10
2023-03-12T09:03:18.637Z,2.28
2023-03-12T09:05:45.296Z,1.92
2023-03-12T09:08:12.294Z,1.60
2023-03-12T09:10:39.093Z,1.90
2023-03-12T09:13:05.794Z,1.80
2023-03-12T09:15:32.187Z,1.92
2023-03-12T09:17:58.634Z,1.70
2023-03-12T09:20:25.399Z,1.95
2023-03-12T09:22:51.880Z,1.70
2023-03-12T09:25:18.619Z,1.80
2023-03-12T09:27:48.223Z,1.83
2023-03-12T09:30:19.332Z,2.00
2023-03-12T09:32:46.114Z,1.90
2023-03-12T09:35:13.571Z,2.00
2023-03-12T09:37:40.359Z,2.00
2023-03-12T09:40:08.223Z,1.95
2023-03-12T09:42:38.568Z,2.08
2023-03-12T09:45:06.509Z,2.30
2023-03-12T09:47:45.475Z,2.30
2023-03-12T09:50:28.344Z,2.40
2023-03-12T09:53:00.336Z,2.28
2023-03-12T09:55:27.694Z,2.00
2023-03-12T09:57:54.290Z,2.40
2023-03-12T10:00:22.644Z,2.10
2023-03-12T10:03:07.860Z,2.50
2023-03-12T10:05:53.285Z,2.47
2023-03-12T10:08:40.006Z,2.58
2023-03-12T10:11:09.297Z,2.55
2023-03-12T10:13:43.030Z,2.55
2023-03-12T10:16:12.702Z,2.45
2023-03-12T10:18:42.170Z,2.45
2023-03-12T10:21:28.850Z,2.30
2023-03-12T10:24:04.429Z,2.45
2023-03-12T10:26:32.002Z,2.60
2023-03-12T10:29:10.168Z,2.33
2023-03-12T10:31:56.880Z,2.22
2023-03-12T10:34:28.572Z,2.20
2023-03-12T10:36:57.340Z,2.42
2023-03-12T10:39:23.691Z,2.20
2023-03-12T10:41:50.470Z,2.03
2023-03-12T10:44:19.888Z,2.40
2023-03-12T10:47:05.454Z,2.33
2023-03-12T10:49:33.629Z,2.20
2023-03-12T10:52:17.242Z,2.10
2023-03-12T10:54:45.150Z,2.28
2023-03-12T10:57:12.203Z,2.30
2023-03-12T10:59:43.166Z,2.20
2023-03-12T11:02:28.499Z,2.10
2023-03-12T11:04:55.304Z,2.08
2023-03-12T11:07:35.371Z,2.20
2023-03-12T11:10:06.249Z,2.13
2023-03-12T11:12:34.655Z,2.15
2023-03-12T11:15:12.605Z,2.17
2023-03-12T11:17:39.065Z,2.10
2023-03-12T11:20:18.770Z,2.00
2023-03-12T11:22:45.163Z,2.10
2023-03-12T11:25:20.077Z,2.20
2023-03-12T11:27:49.597Z,2.30
2023-03-12T11:30:18.007Z,2.30
2023-03-12T11:32:49.230Z,2.28
2023-03-12T11:35:16.914Z,2.10
2023-03-12T11:37:46.456Z,2.17
2023-03-12T11:40:33.535Z,2.33
2023-03-12T11:43:24.082Z,2.28
2023-03-12T11:46:13.041Z,2.30
2023-03-12T11:48:54.537Z,2.40
2023-03-12T11:51:21.090Z,2.10
2023-03-12T11:54:07.357Z,2.40
2023-03-12T11:56:36.898Z,1.92
2023-03-12T11:59:23.544Z,2.08
2023-03-12T12:01:57.096Z,2.40
2023-03-12T12:04:34.045Z,2.30
2023-03-12T12:07:12.587Z,2.35
2023-03-12T12:09:38.966Z,2.35
2023-03-12T12:12:19.461Z,2.53
2023-03-12T12:14:54.587Z,2.45
2023-03-12T12:17:39.536Z,2.15
2023-03-12T12:20:10.034Z,2.17
2023-03-12T12:22:42.113Z,2.50
2023-03-12T12:25:27.532Z,2.33
2023-03-12T12:28:03.105Z,2.50
2023-03-12T12:30:44.638Z,2.30
2023-03-12T12:33:11.056Z,2.53
2023-03-12T12:35:38.701Z,2.42
2023-03-12T12:38:30.562Z,2.65
2023-03-12T12:43:30.655Z,2.20
2023-03-12T12:48:23.361Z,2.28
2023-03-12T12:50:51.698Z,2.60
2023-03-12T12:53:21.850Z,2.40
2023-03-12T12:55:57.492Z,2.40
2023-03-12T12:58:30.263Z,2.40
2023-03-12T13:00:58.854Z,2.50
2023-03-12T13:03:25.963Z,2.63
2023-03-12T13:05:52.457Z,2.65
2023-03-12T13:08:36.200Z,2.22
2023-03-12T13:11:19.418Z,2.30
2023-03-12T13:13:49.996Z,2.40
2023-03-12T13:16:27.715Z,2.20
2023-03-12T13:19:03.101Z,2.70
2023-03-12T13:21:35.037Z,2.45
2023-03-12T13:24:19.703Z,2.60
2023-03-12T13:26:56.219Z,2.60
2023-03-12T13:29:36.618Z,2.95
2023-03-12T13:32:03.811Z,2.53
2023-03-12T13:34:31.720Z,2.58
2023-03-12T13:36:59.685Z,2.60
2023-03-12T13:39:33.697Z,2.40
2023-03-12T13:42:01.228Z,2.70
2023-03-12T13:44:27.798Z,2.28
2023-03-12T13:47:09.250Z,3.30
2023-03-12T13:49:35.762Z,2.60
2023-03-12T13:52:14.428Z,2.53
2023-03-12T13:54:42.938Z,2.65
2023-03-12T13:57:32.724Z,2.72
2023-03-12T13:59:59.470Z,2.83
2023-03-12T14:02:31.384Z,2.45
2023-03-12T14:05:06.059Z,2.38
2023-03-12T14:07:32.511Z,2.38
2023-03-12T14:10:07.628Z,2.65
2023-03-12T14:12:56.687Z,2.40
2023-03-12T14:15:39.702Z,2.40
2023-03-12T14:18:13.659Z,1.90
2023-03-12T14:20:41.595Z,2.25
2023-03-12T14:23:11.867Z,2.38
2023-03-12T14:25:46.088Z,2.33
2023-03-12T14:28:22.959Z,2.28
2023-03-12T14:31:00.956Z,2.70
2023-03-12T14:33:31.184Z,2.60
2023-03-12T14:36:01.701Z,2.60
2023-03-12T14:38:34.539Z,2.38
2023-03-12T14:41:14.467Z,2.30
2023-03-12T14:43:41.865Z,2.38
2023-03-12T14:46:18.685Z,2.50
2023-03-12T14:48:47.587Z,2.33
2023-03-12T14:51:18.522Z,2.60
2023-03-12T14:53:44.982Z,2.28
2023-03-12T14:56:24.057Z,2.60
2023-03-12T14:58:51.276Z,2.38
2023-03-12T15:01:20.243Z,2.30
2023-03-12T15:03:47.840Z,2.40
2023-03-12T15:06:17.741Z,2.38
2023-03-12T15:08:44.710Z,2.35
2023-03-12T15:11:11.710Z,2.50
2023-03-12T15:13:38.998Z,2.50
2023-03-12T15:16:05.787Z,2.53
2023-03-12T15:18:33.100Z,2.22
2023-03-12T15:21:01.554Z,2.42
2023-03-12T15:23:29.690Z,2.25
2023-03-12T15:26:11.839Z,2.50
2023-03-12T15:28:38.438Z,2.53
2023-03-12T15:31:08.675Z,2.40
2023-03-12T15:33:35.172Z,2.70
2023-03-12T15:36:21.810Z,2.50
2023-03-12T15:39:26.227Z,2.15
2023-03-12T15:41:53.788Z,2.50
2023-03-12T15:46:48.643Z,2.30
2023-03-12T15:49:20.665Z,2.33
2023-03-12T15:51:57.957Z,2.30
2023-03-12T15:54:27.193Z,2.55
2023-03-12T15:56:53.812Z,2.55
2023-03-12T15:59:24.618Z,2.38
2023-03-12T16:01:55.051Z,2.22
2023-03-12T16:04:22.813Z,2.50
2023-03-12T16:06:49.763Z,2.50
2023-03-12T16:09:18.245Z,2.80
2023-03-12T16:11:44.736Z,2.42
2023-03-12T16:14:18.905Z,2.70
2023-03-12T16:16:45.455Z,2.40
2023-03-12T16:19:19.332Z,2.58
2023-03-12T16:21:45.964Z,2.35
2023-03-12T16:24:12.420Z,2.67
2023-03-12T16:26:43.963Z,2.80
2023-03-12T16:29:14.391Z,2.72
2023-03-12T16:31:40.971Z,2.42
2023-03-12T16:34:10.136Z,2.70
2023-03-12T16:36:36.606Z,2.67
2023-03-12T16:39:06.158Z,2.80
2023-03-12T16:41:32.631Z,2.40
2023-03-12T16:44:00.420Z,2.28
2023-03-12T16:46:29.485Z,2.60
2023-03-12T16:48:56.053Z,2.67
2023-03-12T16:51:22.820Z,2.40
2023-03-12T16:53:58.673Z,2.78
2023-03-12T16:56:31.997Z,3.00
2023-03-12T16:59:01.898Z,3.05
2023-03-12T17:01:29.174Z,2.50
2023-03-12T17:03:55.752Z,2.50
2023-03-12T17:06:24.167Z,2.40
2023-03-12T17:08:53.099Z,2.05
2023-03-12T17:11:21.522Z,2.47
2023-03-12T17:13:50.357Z,2.42
2023-03-12T17:16:17.285Z,2.67
2023-03-12T17:18:44.116Z,2.75
2023-03-12T17:21:12.010Z,2.90
2023-03-12T17:23:38.548Z,2.95
2023-03-12T17:26:05.467Z,2.58
2023-03-12T17:28:32.223Z,2.63
2023-03-12T17:30:58.726Z,2.55
2023-03-12T17:33:25.921Z,2.30
2023-03-12T17:35:59.598Z,2.72
2023-03-12T17:38:26.385Z,2.40
2023-03-12T17:40:53.250Z,3.08
2023-03-12T17:43:19.715Z,2.60
2023-03-12T17:45:46.441Z,2.88
2023-03-12T17:48:13.237Z,2.40
2023-03-12T17:50:39.658Z,2.75
2023-03-12T17:53:06.197Z,2.92
2023-03-12T17:55:32.684Z,2.70
2023-03-12T17:57:59.176Z,3.13
2023-03-12T18:00:25.635Z,2.65
2023-03-12T18:02:52.328Z,2.65
2023-03-12T18:05:18.954Z,2.60
2023-03-12T18:07:47.079Z,2.60
2023-03-12T18:10:13.867Z,2.88
2023-03-12T18:12:40.501Z,2.38
2023-03-12T18:15:07.894Z,2.40
2023-03-12T18:17:34.512Z,2.42
2023-03-12T18:20:01.062Z,2.60
2023-03-12T18:22:27.587Z,2.40
2023-03-12T18:24:53.915Z,2.40
2023-03-12T18:27:20.353Z,2.38
2023-03-12T18:29:46.866Z,2.17
2023-03-12T18:32:13.256Z,2.42
2023-03-12T18:34:42.325Z,2.60
2023-03-12T18:37:08.749Z,2.30
2023-03-12T18:39:35.176Z,2.05
2023-03-12T18:42:01.597Z,2.30
2023-03-12T18:44:28.180Z,2.70
2023-03-12T18:46:54.691Z,2.70
2023-03-12T18:49:21.484Z,2.55
2023-03-12T18:51:47.979Z,3.80
2023-03-12T18:54:14.691Z,3.35
2023-03-12T18:56:41.200Z,2.63
2023-03-12T18:59:09.687Z,2.70
2023-03-12T19:01:36.227Z,2.03
2023-03-12T19:04:02.797Z,2.60
2023-03-12T19:06:33.108Z,2.30
2023-03-12T19:09:09.601Z,2.10
2023-03-12T19:11:36.004Z,2.20
2023-03-12T19:14:03.284Z,2.95
2023-03-12T19:16:30.575Z,2.67
2023-03-12T19:21:23.575Z,2.10
2023-03-12T19:23:50.220Z,2.10
2023-03-12T19:26:16.631Z,2.05
2023-03-12T19:28:43.134Z,2.30
2023-03-12T19:31:11.624Z,2.33
2023-03-12T19:33:38.608Z,2.40
2023-03-12T19:36:05.205Z,2.10
2023-03-12T19:38:31.764Z,2.25
2023-03-12T19:40:58.630Z,2.25
2023-03-12T19:43:25.412Z,2.10
2023-03-12T19:45:52.979Z,2.20
2023-03-12T19:48:19.474Z,2.22
2023-03-12T19:50:45.898Z,1.95
2023-03-12T19:53:12.833Z,2.10
2023-03-12T19:55:42.025Z,2.13
2023-03-12T19:58:08.503Z,2.20
2023-03-12T20:00:34.921Z,2.03
2023-03-12T20:03:01.456Z,2.17
2023-03-12T20:05:28.058Z,2.20
2023-03-12T20:07:54.482Z,2.20
2023-03-12T20:10:21.240Z,2.33
2023-03-12T20:12:47.697Z,2.42
2023-03-12T20:15:14.253Z,2.33
2023-03-12T20:17:40.752Z,2.28
2023-03-12T20:20:08.711Z,2.20
2023-03-12T20:22:37.955Z,1.90
2023-03-12T20:25:05.328Z,1.98
2023-03-12T20:27:33.994Z,2.10
2023-03-12T20:30:00.586Z,2.03
2023-03-12T20:32:27.166Z,2.55
2023-03-12T20:34:53.677Z,2.22
2023-03-12T20:37:20.061Z,2.28
2023-03-12T20:39:46.554Z,2.10
2023-03-12T20:42:12.988Z,2.22
2023-03-12T20:44:39.553Z,2.08
2023-03-12T20:47:06.085Z,2.03
2023-03-12T20:49:32.524Z,2.40
2023-03-12T20:51:59.986Z,2.20
2023-03-12T20:54:27.392Z,2.38
2023-03-12T20:56:53.862Z,2.45
2023-03-12T20:59:20.248Z,2.35
2023-03-12T21:01:46.704Z,2.40
2023-03-12T21:04:13.094Z,2.30
2023-03-12T21:06:39.536Z,2.63
2023-03-12T21:09:06.119Z,2.35
2023-03-12T21:11:32.637Z,2.33
2023-03-12T21:13:59.143Z,2.10
2023-03-12T21:16:25.670Z,2.30
2023-03-12T21:18:55.783Z,1.83
2023-03-12T21:21:22.339Z,2.20
2023-03-12T21:23:48.910Z,2.40
2023-03-12T21:26:15.501Z,2.28
2023-03-12T21:28:41.883Z,2.30
2023-03-12T21:31:10.335Z,2.30
2023-03-12T21:33:37.118Z,2.30
2023-03-12T21:36:04.695Z,2.05
2023-03-12T21:38:31.086Z,2.10
2023-03-12T21:40:59.114Z,2.40
2023-03-12T21:43:28.478Z,2.28
2023-03-12T21:45:54.956Z,2.22
2023-03-12T21:48:21.637Z,2.25
2023-03-12T21:50:48.027Z,2.47
2023-03-12T21:53:23.512Z,2.00
2023-03-12T21:55:57.538Z,2.08
2023-03-12T21:58:25.559Z,2.13
2023-03-12T22:00:52.306Z,2.33
2023-03-12T22:03:18.959Z,2.70
2023-03-12T22:05:50.270Z,1.95
2023-03-12T22:08:16.819Z,2.50
2023-03-12T22:10:45.164Z,2.25
2023-03-12T22:13:11.811Z,2.10
2023-03-12T22:15:38.585Z,2.28
2023-03-12T22:18:05.060Z,2.30
2023-03-12T22:20:34.401Z,2.30
2023-03-12T22:23:01.226Z,2.30
2023-03-12T22:25:27.608Z,2.85
2023-03-12T22:27:54.023Z,2.30
2023-03-12T22:30:20.670Z,2.30
2023-03-12T22:32:47.131Z,2.50
2023-03-12T22:35:13.704Z,2.60
2023-03-12T22:37:40.698Z,2.70
2023-03-12T22:40:08.449Z,2.72
2023-03-12T22:42:34.876Z,2.65
2023-03-12T22:45:01.752Z,2.50
2023-03-12T22:47:28.256Z,2.80
2023-03-12T22:49:57.628Z,2.47
2023-03-12T22:52:24.074Z,2.55
2023-03-12T22:54:50.454Z,2.25
2023-03-12T22:57:16.848Z,2.30
2023-03-12T22:59:43.241Z,2.42
2023-03-12T23:02:09.649Z,2.17
2023-03-12T23:04:36.207Z,2.53
2023-03-12T23:07:13.662Z,2.10
2023-03-12T23:09:40.726Z,2.50
2023-03-12T23:12:07.284Z,2.40
2023-03-12T23:14:33.901Z,2.80
2023-03-12T23:17:00.310Z,2.40
2023-03-12T23:19:31.507Z,2.50
2023-03-12T23:21:57.953Z,2.38
2023-03-12T23:24:24.387Z,2.60
2023-03-12T23:26:50.878Z,2.20
2023-03-12T23:29:17.260Z,2.35
2023-03-12T23:31:43.715Z,2.10
2023-03-12T23:34:10.144Z,2.28
2023-03-12T23:36:36.701Z,1.92
2023-03-12T23:39:03.683Z,2.08
2023-03-12T23:41:30.063Z,2.10
2023-03-12T23:43:57.049Z,1.95
2023-03-12T23:46:23.524Z,2.33
2023-03-12T23:48:50.360Z,2.00
2023-03-12T23:51:18.230Z,2.20
2023-03-12T23:53:45.630Z,1.90
2023-03-12T23:56:13.365Z,1.75
2023-03-12T23:58:39.819Z,2.40
